Alto, Georgia
Current Conditions -  °F | °C
As of 1:35 PM on Thursday 23 Oct 2014 (Local Time) from KTOC Reporting Station
Clear Clear  
Wind Chill: 68°   Ceiling: Unl
Heat Index: 68°   Visibility: 10mi
Dew Point: 35°   Wind: 0mph
Humidity: 29%   Direction: NA
Pressure: 30.06"   Gusts: NA
Location:  34.47°N, 83.57°W
Report Text: KTOC 231735Z AUTO 00000KT 10SM CLR 20/02 A3006 RMK AO2 T02000016
Loading
Personal Weather Stations






























Interactive Weather Map
Tropical Storm Tracking
New forecast layout! Learn more

10-Day Weather Forecast

Advertisements
Track Severe Weather on mobile